createdAt,value
2018-08-24T00:00:24.270Z,99.90
2018-08-24T00:02:58.885Z,99.90
2018-08-24T00:05:32.270Z,99.90
2018-08-24T00:08:02.737Z,99.90
2018-08-24T00:10:31.838Z,99.90
2018-08-24T00:13:03.176Z,99.90
2018-08-24T00:15:31.680Z,99.90
2018-08-24T00:18:00.897Z,99.90
2018-08-24T00:20:29.603Z,99.90
2018-08-24T00:22:59.524Z,99.90
2018-08-24T00:25:31.446Z,99.90
2018-08-24T00:28:02.433Z,99.90
2018-08-24T00:30:32.134Z,99.90
2018-08-24T00:33:00.976Z,99.90
2018-08-24T00:35:35.683Z,99.90
2018-08-24T00:38:08.062Z,99.90
2018-08-24T00:40:37.273Z,99.90
2018-08-24T00:43:07.519Z,99.90
2018-08-24T00:45:37.123Z,99.90
2018-08-24T00:48:07.297Z,99.90
2018-08-24T00:50:37.325Z,99.90
2018-08-24T00:53:07.327Z,99.90
2018-08-24T00:55:36.305Z,99.90
2018-08-24T00:58:05.153Z,99.90
2018-08-24T01:00:40.040Z,99.90
2018-08-24T01:03:09.477Z,99.90
2018-08-24T01:05:44.145Z,99.90
2018-08-24T01:08:13.055Z,99.90
2018-08-24T01:10:42.270Z,99.90
2018-08-24T01:13:15.801Z,99.90
2018-08-24T01:15:53.024Z,99.90
2018-08-24T01:18:26.993Z,99.90
2018-08-24T01:20:59.379Z,99.90
2018-08-24T01:23:32.342Z,99.90
2018-08-24T01:26:02.062Z,99.90
2018-08-24T01:28:32.260Z,99.90
2018-08-24T01:31:04.784Z,99.90
2018-08-24T01:33:34.831Z,99.90
2018-08-24T01:36:05.693Z,99.90
2018-08-24T01:38:35.402Z,99.90
2018-08-24T01:41:04.769Z,99.90
2018-08-24T01:43:34.391Z,99.90
2018-08-24T01:46:08.829Z,99.90
2018-08-24T01:48:38.733Z,99.90
2018-08-24T01:51:07.707Z,99.90
2018-08-24T01:53:36.845Z,99.90
2018-08-24T01:56:05.344Z,99.90
2018-08-24T01:58:34.759Z,99.90
2018-08-24T02:01:03.228Z,99.90
2018-08-24T02:03:32.124Z,99.90
2018-08-24T02:06:07.594Z,99.90
2018-08-24T02:08:37.948Z,99.90
2018-08-24T02:11:38.219Z,99.90
2018-08-24T02:14:13.732Z,99.90
2018-08-24T02:16:43.889Z,99.90
2018-08-24T02:19:13.999Z,99.90
2018-08-24T02:21:48.699Z,99.90
2018-08-24T02:24:18.261Z,99.90
2018-08-24T02:26:48.542Z,99.90
2018-08-24T02:29:18.307Z,99.90
2018-08-24T02:31:48.399Z,99.90
2018-08-24T02:34:17.076Z,99.90
2018-08-24T02:36:46.025Z,99.90
2018-08-24T02:39:16.115Z,99.90
2018-08-24T02:41:47.055Z,99.90
2018-08-24T02:44:16.402Z,99.90
2018-08-24T02:46:46.074Z,99.90
2018-08-24T02:49:14.822Z,99.90
2018-08-24T02:51:45.156Z,99.90
2018-08-24T02:54:14.718Z,99.90
2018-08-24T02:56:43.109Z,99.90
2018-08-24T02:59:14.008Z,99.90
2018-08-24T03:01:42.883Z,99.90
2018-08-24T03:04:11.746Z,99.90
2018-08-24T03:06:40.303Z,99.90
2018-08-24T03:09:10.521Z,99.90
2018-08-24T03:11:39.077Z,99.90
2018-08-24T03:14:09.331Z,99.90
2018-08-24T03:16:47.502Z,99.90
2018-08-24T03:19:32.500Z,99.90
2018-08-24T03:22:01.707Z,99.90
2018-08-24T03:24:31.799Z,99.90
2018-08-24T03:27:01.255Z,99.90
2018-08-24T03:29:30.235Z,99.90
2018-08-24T03:32:00.440Z,99.90
2018-08-24T03:34:28.913Z,99.90
2018-08-24T03:36:59.066Z,99.90
2018-08-24T03:39:27.706Z,99.90
2018-08-24T03:41:58.421Z,99.90
2018-08-24T03:44:28.497Z,99.90
2018-08-24T03:47:03.561Z,99.90
2018-08-24T03:49:33.011Z,99.90
2018-08-24T03:52:08.007Z,99.90
2018-08-24T03:54:43.723Z,99.90
2018-08-24T03:57:56.991Z,99.90
2018-08-24T04:00:26.097Z,99.90
2018-08-24T04:03:09.489Z,99.90
2018-08-24T04:05:37.681Z,99.90
2018-08-24T04:08:07.559Z,99.90
2018-08-24T04:10:36.394Z,99.90
2018-08-24T04:13:05.019Z,99.90
2018-08-24T04:15:42.921Z,99.90
2018-08-24T04:18:11.335Z,99.90
2018-08-24T04:20:40.085Z,99.90
2018-08-24T04:23:08.194Z,99.90
2018-08-24T04:25:36.368Z,99.90
2018-08-24T04:28:06.332Z,99.90
2018-08-24T04:30:35.316Z,99.90
2018-08-24T04:33:03.623Z,99.90
2018-08-24T04:35:37.218Z,99.90
2018-08-24T04:38:07.295Z,99.90
2018-08-24T04:40:36.400Z,99.90
2018-08-24T04:43:06.429Z,99.90
2018-08-24T04:45:36.799Z,99.90
2018-08-24T04:55:26.039Z,99.90
2018-08-24T04:57:55.256Z,99.90
2018-08-24T05:00:24.524Z,99.90
2018-08-24T05:02:55.245Z,99.90
2018-08-24T05:05:45.492Z,99.90
2018-08-24T05:08:28.789Z,99.90
2018-08-24T05:10:58.646Z,99.90
2018-08-24T05:13:27.355Z,99.90
2018-08-24T05:16:24.288Z,99.90
2018-08-24T05:18:57.750Z,99.90
2018-08-24T05:21:30.768Z,99.90
2018-08-24T05:24:10.003Z,99.90
2018-08-24T05:26:40.669Z,99.90
2018-08-24T05:33:21.369Z,99.90
2018-08-24T05:35:59.889Z,99.90
2018-08-24T05:38:59.789Z,99.90
2018-08-24T05:41:56.642Z,99.90
2018-08-24T05:44:39.588Z,99.90
2018-08-24T05:47:08.365Z,99.90
2018-08-24T05:49:36.670Z,99.90
2018-08-24T05:52:11.854Z,99.90
2018-08-24T05:58:19.537Z,99.90
2018-08-24T06:01:19.928Z,99.90
2018-08-24T06:04:09.363Z,99.90
2018-08-24T06:07:11.084Z,99.90
2018-08-24T06:09:44.202Z,99.90
2018-08-24T06:12:13.057Z,99.90
2018-08-24T06:15:08.200Z,99.90
2018-08-24T06:17:54.853Z,99.90
2018-08-24T06:20:33.781Z,99.90
2018-08-24T06:23:04.336Z,99.90
2018-08-24T06:25:35.939Z,99.90
2018-08-24T06:28:11.975Z,99.90
2018-08-24T06:30:40.392Z,99.90
2018-08-24T06:33:09.489Z,99.90
2018-08-24T06:35:54.006Z,99.90
2018-08-24T06:38:27.589Z,99.90
2018-08-24T06:40:56.187Z,99.90
2018-08-24T06:43:26.935Z,99.90
2018-08-24T06:45:58.333Z,99.90
2018-08-24T06:48:26.654Z,99.90
2018-08-24T06:50:55.837Z,99.90
2018-08-24T06:53:24.952Z,99.90
2018-08-24T06:55:57.068Z,99.90
2018-08-24T06:58:26.282Z,99.90
2018-08-24T07:00:54.998Z,99.90
2018-08-24T07:03:29.418Z,99.90
2018-08-24T07:06:01.077Z,99.90
2018-08-24T07:08:41.014Z,99.90
2018-08-24T07:11:09.506Z,99.90
2018-08-24T07:13:48.126Z,99.90
2018-08-24T07:16:56.538Z,99.90
2018-08-24T07:20:01.436Z,99.90
2018-08-24T07:22:34.408Z,99.90
2018-08-24T07:25:06.751Z,99.90
2018-08-24T07:28:11.351Z,99.90
2018-08-24T07:31:09.185Z,99.90
2018-08-24T07:33:39.421Z,99.90
2018-08-24T07:36:10.283Z,99.90
2018-08-24T07:38:39.388Z,99.90
2018-08-24T07:43:54.596Z,99.90
2018-08-24T07:46:43.753Z,99.90
2018-08-24T07:49:11.840Z,99.90
2018-08-24T07:51:40.680Z,99.90
2018-08-24T07:54:18.922Z,99.90
2018-08-24T07:56:48.072Z,99.90
2018-08-24T07:59:20.511Z,99.90
2018-08-24T08:01:49.073Z,99.90
2018-08-24T08:04:18.766Z,99.90
2018-08-24T08:06:51.399Z,99.90
2018-08-24T08:09:19.612Z,99.90
2018-08-24T08:12:01.731Z,99.90
2018-08-24T08:14:40.025Z,99.90
2018-08-24T08:17:10.201Z,99.90
2018-08-24T08:19:44.715Z,99.90
2018-08-24T08:22:24.736Z,99.90
2018-08-24T08:24:57.077Z,99.90
2018-08-24T08:28:00.828Z,99.90
2018-08-24T08:30:58.528Z,99.90
2018-08-24T08:33:30.154Z,99.90
2018-08-24T08:36:02.318Z,99.90
2018-08-24T08:38:31.598Z,99.90
2018-08-24T08:41:00.804Z,99.90
2018-08-24T08:43:37.058Z,99.90
2018-08-24T08:49:27.369Z,99.90
2018-08-24T08:52:00.425Z,99.90
2018-08-24T08:54:35.670Z,99.90
2018-08-24T08:57:31.552Z,99.90
2018-08-24T09:00:13.317Z,99.90
2018-08-24T09:03:06.319Z,99.90
2018-08-24T09:06:17.231Z,99.90
2018-08-24T09:09:20.181Z,99.90
2018-08-24T09:12:05.229Z,99.90
2018-08-24T09:14:34.102Z,99.90
2018-08-24T09:17:07.796Z,99.90
2018-08-24T09:19:41.575Z,99.90
2018-08-24T09:22:17.071Z,99.90
2018-08-24T09:24:50.834Z,99.90
2018-08-24T09:27:28.831Z,99.90
2018-08-24T09:30:03.073Z,99.90
2018-08-24T09:32:34.009Z,99.90
2018-08-24T09:35:03.026Z,99.90
2018-08-24T09:37:41.993Z,99.90
2018-08-24T09:40:13.448Z,99.90
2018-08-24T09:42:43.745Z,99.90
2018-08-24T09:45:13.458Z,99.90
2018-08-24T09:47:50.121Z,99.90
2018-08-24T09:54:11.908Z,99.90
2018-08-24T09:56:42.697Z,99.90
2018-08-24T09:59:40.303Z,99.90
2018-08-24T10:02:16.207Z,99.90
2018-08-24T10:04:57.068Z,99.90
2018-08-24T10:07:31.577Z,99.90
2018-08-24T10:10:06.593Z,99.90
2018-08-24T10:12:38.351Z,99.90
2018-08-24T10:15:13.474Z,99.90
2018-08-24T10:17:43.867Z,99.90
2018-08-24T10:20:13.468Z,99.90
2018-08-24T10:22:42.241Z,99.90
2018-08-24T10:25:12.874Z,99.90
2018-08-24T10:27:48.239Z,99.90
2018-08-24T10:30:22.702Z,99.90
2018-08-24T10:32:51.234Z,99.90
2018-08-24T10:35:21.165Z,99.90
2018-08-24T10:38:06.106Z,99.90
2018-08-24T10:40:50.401Z,99.90
2018-08-24T10:43:33.267Z,99.90
2018-08-24T10:46:36.094Z,99.90
2018-08-24T10:50:11.396Z,99.90
2018-08-24T10:52:55.712Z,99.90
2018-08-24T10:55:28.048Z,99.90
2018-08-24T10:58:07.458Z,99.90
2018-08-24T11:00:52.645Z,99.90
2018-08-24T11:03:28.657Z,99.90
2018-08-24T11:06:01.597Z,99.90
2018-08-24T11:08:32.228Z,99.90
2018-08-24T11:11:01.320Z,99.90
2018-08-24T11:13:38.462Z,99.90
2018-08-24T11:16:16.041Z,99.90
2018-08-24T11:19:25.263Z,99.90
2018-08-24T11:22:31.951Z,99.90
2018-08-24T11:25:12.349Z,99.90
2018-08-24T11:27:44.984Z,99.90
2018-08-24T11:30:29.162Z,99.90
2018-08-24T11:33:08.495Z,99.90
2018-08-24T11:35:38.591Z,99.90
2018-08-24T11:38:08.467Z,99.90
2018-08-24T11:41:02.675Z,99.90
2018-08-24T11:44:08.401Z,99.90
2018-08-24T11:46:59.579Z,99.90
2018-08-24T11:50:02.007Z,99.90
2018-08-24T11:53:11.979Z,99.90
2018-08-24T11:55:49.317Z,99.90
2018-08-24T11:58:19.651Z,99.90
2018-08-24T12:00:54.774Z,99.90
2018-08-24T12:03:24.038Z,99.90
2018-08-24T12:05:56.163Z,99.90
2018-08-24T12:08:51.912Z,99.90
2018-08-24T12:11:42.046Z,99.90
2018-08-24T12:14:14.429Z,99.90
2018-08-24T12:16:46.864Z,99.90
2018-08-24T12:19:18.499Z,99.90
2018-08-24T12:21:48.060Z,99.90
2018-08-24T12:24:19.240Z,99.90
2018-08-24T12:26:52.104Z,99.90
2018-08-24T12:29:21.525Z,99.90
2018-08-24T12:32:10.985Z,99.90
2018-08-24T12:34:42.147Z,99.90
2018-08-24T12:37:14.143Z,99.90
2018-08-24T12:39:43.423Z,99.90
2018-08-24T12:42:40.217Z,99.90
2018-08-24T12:45:08.450Z,99.90
2018-08-24T12:47:39.226Z,99.90
2018-08-24T12:50:09.825Z,99.90
2018-08-24T12:52:41.530Z,99.90
2018-08-24T12:55:10.390Z,99.90
2018-08-24T12:57:59.421Z,99.90
2018-08-24T13:00:41.023Z,99.90
2018-08-24T13:03:23.915Z,99.90
2018-08-24T13:06:11.092Z,99.90
2018-08-24T13:09:01.617Z,99.90
2018-08-24T13:11:33.815Z,99.90
2018-08-24T13:14:03.941Z,99.90
2018-08-24T13:16:47.965Z,99.90
2018-08-24T13:19:41.802Z,99.90
2018-08-24T13:22:14.307Z,99.90
2018-08-24T13:24:48.429Z,99.90
2018-08-24T13:27:20.021Z,99.90
2018-08-24T13:30:00.000Z,99.90
2018-08-24T13:32:51.720Z,99.90
2018-08-24T13:35:32.606Z,99.90
2018-08-24T13:38:06.325Z,99.90
2018-08-24T13:40:41.616Z,99.90
2018-08-24T13:43:27.821Z,99.90
2018-08-24T13:46:37.566Z,99.90
2018-08-24T13:49:29.120Z,99.90
2018-08-24T13:52:25.106Z,99.90
2018-08-24T13:55:24.958Z,99.90
2018-08-24T13:58:12.045Z,99.90
2018-08-24T14:01:04.982Z,99.90
2018-08-24T14:03:42.916Z,99.90
2018-08-24T14:06:26.601Z,99.90
2018-08-24T14:09:07.734Z,99.90
2018-08-24T14:11:44.577Z,99.90
2018-08-24T14:14:21.019Z,99.90
2018-08-24T14:16:51.732Z,99.90
2018-08-24T14:19:28.729Z,99.90
2018-08-24T14:22:03.421Z,99.90
2018-08-24T14:24:33.713Z,99.90
2018-08-24T14:27:02.831Z,99.90
2018-08-24T14:29:38.411Z,98.70
2018-08-24T14:32:24.320Z,97.60
2018-08-24T14:35:29.347Z,98.00
2018-08-24T14:38:29.261Z,97.00
2018-08-24T14:41:31.874Z,98.10
2018-08-24T14:47:34.042Z,99.90
2018-08-24T14:50:08.679Z,99.90
2018-08-24T14:52:56.659Z,99.90
2018-08-24T14:55:33.105Z,99.90
2018-08-24T14:58:03.440Z,99.90
2018-08-24T15:00:40.062Z,99.90
2018-08-24T15:03:13.703Z,99.90
2018-08-24T15:05:59.552Z,99.90
2018-08-24T15:08:34.626Z,99.90
2018-08-24T15:11:03.346Z,99.90
2018-08-24T15:13:31.991Z,99.90
2018-08-24T15:16:02.345Z,99.90
2018-08-24T15:18:30.902Z,99.90
2018-08-24T15:21:06.181Z,99.90
2018-08-24T15:23:46.250Z,99.90
2018-08-24T15:26:18.120Z,99.90
2018-08-24T15:28:49.764Z,99.90
2018-08-24T15:31:18.914Z,99.90
2018-08-24T15:33:47.308Z,99.90
2018-08-24T15:36:43.238Z,99.90
2018-08-24T15:42:40.344Z,99.90
2018-08-24T15:45:09.237Z,99.90
2018-08-24T15:47:59.480Z,99.90
2018-08-24T15:50:35.864Z,99.90
2018-08-24T15:53:04.891Z,99.90
2018-08-24T15:55:33.407Z,99.90
2018-08-24T15:58:05.684Z,99.90
2018-08-24T16:00:42.932Z,99.90
2018-08-24T16:03:14.744Z,99.90
2018-08-24T16:05:43.554Z,99.90
2018-08-24T16:08:14.648Z,99.90
2018-08-24T16:11:06.124Z,99.90
2018-08-24T16:16:37.386Z,99.90
2018-08-24T16:19:23.044Z,99.90
2018-08-24T16:21:59.286Z,99.90
2018-08-24T16:24:29.276Z,99.90
2018-08-24T16:26:57.635Z,99.90
2018-08-24T16:29:38.463Z,99.90
2018-08-24T16:32:16.577Z,99.90
2018-08-24T16:34:53.448Z,99.90
2018-08-24T16:37:23.201Z,99.90
2018-08-24T16:39:52.022Z,99.90
2018-08-24T16:42:21.438Z,99.90
2018-08-24T16:45:06.202Z,99.90
2018-08-24T16:47:40.894Z,99.90
2018-08-24T16:50:27.099Z,99.90
2018-08-24T16:53:05.338Z,99.90
2018-08-24T16:55:39.644Z,99.90
2018-08-24T16:58:18.171Z,99.90
2018-08-24T17:00:49.928Z,99.90
2018-08-24T17:03:28.284Z,99.90
2018-08-24T17:06:16.594Z,99.90
2018-08-24T17:08:53.110Z,99.90
2018-08-24T17:11:37.708Z,99.90
2018-08-24T17:14:11.637Z,99.90
2018-08-24T17:16:39.912Z,99.90
2018-08-24T17:19:11.415Z,99.90
2018-08-24T17:21:45.069Z,99.90
2018-08-24T17:24:14.578Z,99.90
2018-08-24T17:26:49.201Z,99.90
2018-08-24T17:29:18.775Z,99.90
2018-08-24T17:31:52.744Z,99.90
2018-08-24T17:34:35.517Z,99.90
2018-08-24T17:37:16.667Z,99.90
2018-08-24T17:39:49.134Z,99.90
2018-08-24T17:42:19.361Z,99.90
2018-08-24T17:45:19.437Z,99.90
2018-08-24T17:47:53.289Z,99.90
2018-08-24T17:50:31.810Z,99.90
2018-08-24T17:53:34.736Z,99.90
2018-08-24T17:56:09.042Z,99.90
2018-08-24T17:58:40.090Z,99.90
2018-08-24T18:01:39.295Z,99.90
2018-08-24T18:04:07.893Z,99.90
2018-08-24T18:07:25.771Z,99.90
2018-08-24T18:12:49.551Z,99.90
2018-08-24T18:15:22.077Z,99.90
2018-08-24T18:17:51.093Z,99.90
2018-08-24T18:23:49.323Z,99.90
2018-08-24T18:26:19.525Z,98.70
2018-08-24T18:28:49.778Z,97.50
2018-08-24T18:31:23.087Z,97.80
2018-08-24T18:33:56.340Z,97.50
2018-08-24T18:36:36.794Z,96.60
2018-08-24T18:39:19.003Z,96.80
2018-08-24T18:42:05.339Z,96.60
2018-08-24T18:44:38.512Z,95.70
2018-08-24T18:47:12.238Z,95.60
2018-08-24T18:50:06.014Z,95.60
2018-08-24T18:52:54.209Z,95.80
2018-08-24T18:56:08.779Z,96.30
2018-08-24T18:59:05.692Z,96.30
2018-08-24T19:02:06.294Z,96.00
2018-08-24T19:04:42.370Z,96.20
2018-08-24T19:07:17.118Z,96.20
2018-08-24T19:09:49.740Z,96.30
2018-08-24T19:12:23.995Z,96.10
2018-08-24T19:14:54.053Z,95.90
2018-08-24T19:17:43.098Z,96.00
2018-08-24T19:20:44.050Z,96.30
2018-08-24T19:23:14.625Z,96.80
2018-08-24T19:25:48.186Z,96.80
2018-08-24T19:28:26.630Z,96.80
2018-08-24T19:30:55.804Z,96.30
2018-08-24T19:33:42.103Z,96.00
2018-08-24T19:36:11.704Z,96.00
2018-08-24T19:38:46.904Z,96.00
2018-08-24T19:41:23.752Z,96.10
2018-08-24T19:43:52.563Z,96.20
2018-08-24T19:46:23.166Z,96.40
2018-08-24T19:49:00.057Z,96.60
2018-08-24T19:51:38.424Z,96.60
2018-08-24T19:54:09.794Z,96.80
2018-08-24T19:56:40.313Z,96.60
2018-08-24T20:02:21.256Z,96.60
2018-08-24T20:05:00.467Z,96.30
2018-08-24T20:07:41.367Z,96.10
2018-08-24T20:10:20.282Z,95.80
2018-08-24T20:12:55.524Z,95.70
2018-08-24T20:15:35.382Z,95.40
2018-08-24T20:18:07.263Z,95.70
2018-08-24T20:20:41.413Z,95.50
2018-08-24T20:23:14.402Z,96.00
2018-08-24T20:26:00.682Z,95.40
2018-08-24T20:28:32.710Z,95.60
2018-08-24T20:31:06.189Z,95.70
2018-08-24T20:33:40.362Z,96.00
2018-08-24T20:36:16.299Z,96.00
2018-08-24T20:39:13.008Z,95.80
2018-08-24T20:41:51.536Z,95.50
2018-08-24T20:44:25.152Z,95.50
2018-08-24T20:47:05.282Z,95.20
2018-08-24T20:49:54.795Z,95.50
2018-08-24T20:52:26.329Z,95.60
2018-08-24T20:54:57.331Z,95.50
2018-08-24T20:57:43.727Z,95.10
2018-08-24T21:00:16.390Z,94.80
2018-08-24T21:02:51.092Z,95.20
2018-08-24T21:05:25.051Z,95.10
2018-08-24T21:08:00.940Z,94.90
2018-08-24T21:10:41.897Z,94.60
2018-08-24T21:13:17.026Z,94.90
2018-08-24T21:15:52.633Z,94.40
2018-08-24T21:18:25.866Z,93.70
2018-08-24T21:20:54.135Z,94.00
2018-08-24T21:23:24.244Z,93.60
2018-08-24T21:25:52.694Z,93.70
2018-08-24T21:28:23.172Z,93.30
2018-08-24T21:30:53.679Z,93.40
2018-08-24T21:33:24.704Z,93.30
2018-08-24T21:36:02.365Z,93.50
2018-08-24T21:38:33.633Z,93.50
2018-08-24T21:41:05.046Z,93.50
2018-08-24T21:43:37.805Z,93.00
2018-08-24T21:46:06.613Z,93.00
2018-08-24T21:48:47.689Z,93.10
2018-08-24T21:51:17.941Z,93.20
2018-08-24T21:53:49.500Z,93.40
2018-08-24T21:56:18.181Z,93.20
2018-08-24T21:58:56.698Z,93.60
2018-08-24T22:01:52.109Z,93.10
2018-08-24T22:04:23.304Z,93.20
2018-08-24T22:07:01.159Z,93.20
2018-08-24T22:09:30.441Z,93.40
2018-08-24T22:12:00.837Z,93.70
2018-08-24T22:14:29.156Z,93.40
2018-08-24T22:16:58.421Z,93.60
2018-08-24T22:19:26.667Z,93.50
2018-08-24T22:21:56.594Z,93.50
2018-08-24T22:24:25.820Z,93.50
2018-08-24T22:26:55.479Z,93.40
2018-08-24T22:29:24.296Z,93.60
2018-08-24T22:31:53.743Z,93.50
2018-08-24T22:34:22.159Z,93.60
2018-08-24T22:36:53.488Z,93.20
2018-08-24T22:39:27.326Z,93.10
2018-08-24T22:42:23.410Z,93.20
2018-08-24T22:44:53.784Z,93.60
2018-08-24T22:47:38.122Z,93.40
2018-08-24T22:50:08.669Z,93.20
2018-08-24T22:52:38.599Z,93.10
2018-08-24T22:55:09.318Z,93.40
2018-08-24T22:57:42.160Z,93.60
2018-08-24T23:00:14.605Z,93.40
2018-08-24T23:02:43.759Z,93.20
2018-08-24T23:05:14.100Z,93.40
2018-08-24T23:07:42.379Z,93.50
2018-08-24T23:10:11.567Z,93.90
2018-08-24T23:12:41.736Z,93.80
2018-08-24T23:15:19.826Z,93.70
2018-08-24T23:18:02.801Z,93.60
2018-08-24T23:21:41.328Z,93.70
2018-08-24T23:24:15.273Z,93.30
2018-08-24T23:26:43.782Z,93.30
2018-08-24T23:29:12.830Z,93.70
2018-08-24T23:31:48.946Z,93.60
2018-08-24T23:34:18.617Z,93.90
2018-08-24T23:36:48.088Z,94.10
2018-08-24T23:39:16.966Z,94.10
2018-08-24T23:41:45.401Z,94.40
2018-08-24T23:44:16.698Z,94.60
2018-08-24T23:46:46.168Z,94.20
2018-08-24T23:49:16.052Z,94.80
2018-08-24T23:51:47.173Z,94.60
2018-08-24T23:54:16.201Z,94.60
2018-08-24T23:56:56.715Z,94.60
2018-08-24T23:59:25.349Z,94.70
